METAR Data
IDs: Format: Raw Decoded Include TAF

Data at: 0200 UTC 20 Jan 2022

KSEA 200153Z 26003KT 10SM OVC021 08/06 A3026 RMK AO2 SLP256 T00830061
KSEA 200053Z 00000KT 10SM OVC022 09/06 A3026 RMK AO2 SLP254 T00890056
KSEA 192353Z 14003KT 10SM OVC027 10/04 A3026 RMK AO2 SLP255 T01000044 10100 20067 56008
KSEA 192311Z 00000KT 10SM FEW012 OVC027 10/06 A3027 RMK AO2 T01000056
KSEA 192253Z 00000KT 10SM FEW015 OVC030 09/06 A3027 RMK AO2 SLP257 T00940056
KSEA 192153Z 00000KT 10SM FEW015 OVC031 09/05 A3028 RMK AO2 SLP261 T00890050
KSEA 192053Z 00000KT 10SM FEW010 BKN038 OVC045 09/05 A3029 RMK AO2 SLP263 T00890050 57006
KSEA 192051Z 00000KT 10SM FEW010 BKN038 OVC045 09/05 A3029 RMK AO2
KSEA 191953Z 18004KT 9SM FEW010 BKN024 OVC032 08/04 A3030 RMK AO2 SLP271 T00780044
KSEA 191947Z 16003KT 9SM FEW010 BKN024 OVC032 08/04 A3030 RMK AO2
KSEA 191853Z 17005KT 10SM SCT030 BKN037 BKN060 07/04 A3031 RMK AO2 SLP272 T00720039
KSEA 191753Z 12005KT 10SM SCT080 BKN110 BKN200 07/04 A3030 RMK AO2 SLP268 T00670039 10067 20056 50006
KSEA 191653Z 17004KT 10SM FEW030 BKN110 OVC200 06/04 A3030 RMK AO2 SLP269 T00610039
KSEA 191553Z 19004KT 10SM FEW030 SCT090 BKN110 BKN250 06/04 A3028 RMK AO2 SLP263 T00560039
KSEA 191453Z 13005KT 10SM FEW025 BKN110 OVC140 06/04 A3028 RMK AO2 SLP262 T00610044 53003
KSEA 191401Z 11006KT 10SM SCT026 OVC140 06/04 A3027 RMK AO2 T00610044
KSEA 191353Z 12005KT 10SM BKN024 OVC140 06/04 A3027 RMK AO2 SLP260 T00610044
KSEA 191253Z 13006KT 10SM FEW015 OVC024 06/04 A3027 RMK AO2 SLP258 T00610044
KSEA 191153Z 14004KT 10SM BKN024 06/04 A3027 RMK AO2 SLP259 70003 T00610044 10083 20061 51011
KSEA 191053Z 13003KT 10SM OVC018 07/06 A3027 RMK AO2 SLP258 T00670056
KSEA 191018Z 15004KT 10SM SCT012 OVC019 07/06 A3025 RMK AO2 T00670056
KSEA 190953Z 15003KT 10SM BKN011 BKN018 06/06 A3024 RMK AO2 SLP250 T00610056
KSEA 190951Z 16003KT 10SM BKN011 BKN018 06/06 A3025 RMK AO2
KSEA 190925Z 14005KT 10SM SCT020 BKN034 07/06 A3024 RMK AO2 T00670056
KSEA 190908Z 13004KT 10SM FEW010 BKN021 OVC035 07/06 A3024 RMK AO2 T00670061
KSEA 190853Z 14004KT 10SM FEW009 SCT020 BKN037 07/06 A3024 RMK AO2 SLP248 T00720061 51009
KSEA 190825Z 13004KT 9SM SCT009 BKN040 07/06 A3024 RMK AO2 T00720061
KSEA 190753Z 14004KT 9SM BKN009 OVC030 08/07 A3022 RMK AO2 SLP243 T00780067 400830072
KSEA 190732Z 15004KT 10SM OVC009 08/07 A3023 RMK AO2 T00780067
KSEA 190715Z 17004KT 10SM FEW009 BKN019 OVC032 08/07 A3023 RMK AO2 T00780067
KSEA 190653Z 18003KT 10SM BKN017 OVC032 08/07 A3023 RMK AO2 SLP245 T00780067
KSEA 190626Z 18004KT 10SM SCT009 OVC015 08/07 A3022 RMK AO2 T00780067
KSEA 190553Z 15004KT 10SM BKN010 OVC028 08/07 A3021 RMK AO2 SLP238 60000 T00780067 10083 20078 51008
KSEA 190453Z 16005KT 9SM OVC014 08/07 A3021 RMK AO2 SLP238 T00780067
KSEA 190421Z 15005KT 8SM FEW008 SCT013 OVC020 08/07 A3020 RMK AO2 T00780067
KSEA 190353Z VRB04KT 10SM OVC018 08/07 A3019 RMK AO2 SLP232 T00830067
KSEA 190253Z 20004KT 10SM OVC018 08/07 A3018 RMK AO2 SLP230 60000 T00780067 51010